sensor_id;sensor_type;location;lat;lon;timestamp;P1;durP1;ratioP1;P2;durP2;ratioP2
17390;SDS011;8813;54.444;18.446;2023-07-20T00:00:06;2.10;;;2.10;;
17390;SDS011;8813;54.444;18.446;2023-07-20T00:02:34;2.10;;;2.10;;
17390;SDS011;8813;54.444;18.446;2023-07-20T00:05:00;2.00;;;2.00;;
17390;SDS011;8813;54.444;18.446;2023-07-20T00:07:27;2.00;;;2.00;;
17390;SDS011;8813;54.444;18.446;2023-07-20T00:09:55;2.35;;;2.35;;
17390;SDS011;8813;54.444;18.446;2023-07-20T00:12:23;2.00;;;2.00;;
17390;SDS011;8813;54.444;18.446;2023-07-20T00:14:50;1.90;;;1.90;;
17390;SDS011;8813;54.444;18.446;2023-07-20T00:17:18;2.00;;;2.00;;
17390;SDS011;8813;54.444;18.446;2023-07-20T00:19:45;2.10;;;2.10;;
17390;SDS011;8813;54.444;18.446;2023-07-20T00:22:12;2.13;;;2.13;;
17390;SDS011;8813;54.444;18.446;2023-07-20T00:24:39;2.15;;;2.15;;
17390;SDS011;8813;54.444;18.446;2023-07-20T00:27:06;1.90;;;1.90;;
17390;SDS011;8813;54.444;18.446;2023-07-20T00:29:35;2.03;;;2.03;;
17390;SDS011;8813;54.444;18.446;2023-07-20T00:32:02;2.00;;;2.00;;
17390;SDS011;8813;54.444;18.446;2023-07-20T00:34:31;2.40;;;2.40;;
17390;SDS011;8813;54.444;18.446;2023-07-20T00:36:58;2.25;;;2.25;;
17390;SDS011;8813;54.444;18.446;2023-07-20T00:39:25;2.40;;;2.40;;
17390;SDS011;8813;54.444;18.446;2023-07-20T00:41:52;2.60;;;2.60;;
17390;SDS011;8813;54.444;18.446;2023-07-20T00:44:19;2.28;;;2.28;;
17390;SDS011;8813;54.444;18.446;2023-07-20T00:46:47;2.53;;;2.53;;
17390;SDS011;8813;54.444;18.446;2023-07-20T00:49:14;2.10;;;2.10;;
17390;SDS011;8813;54.444;18.446;2023-07-20T00:51:42;2.05;;;2.05;;
17390;SDS011;8813;54.444;18.446;2023-07-20T00:54:09;2.05;;;2.05;;
17390;SDS011;8813;54.444;18.446;2023-07-20T00:56:36;2.20;;;2.20;;
17390;SDS011;8813;54.444;18.446;2023-07-20T00:59:03;2.00;;;2.00;;
17390;SDS011;8813;54.444;18.446;2023-07-20T01:01:30;2.00;;;2.00;;
17390;SDS011;8813;54.444;18.446;2023-07-20T01:03:58;2.10;;;2.10;;
17390;SDS011;8813;54.444;18.446;2023-07-20T01:06:27;2.30;;;2.30;;
17390;SDS011;8813;54.444;18.446;2023-07-20T01:09:00;2.22;;;2.22;;
17390;SDS011;8813;54.444;18.446;2023-07-20T01:11:33;2.35;;;2.35;;
17390;SDS011;8813;54.444;18.446;2023-07-20T01:14:03;2.30;;;2.30;;
17390;SDS011;8813;54.444;18.446;2023-07-20T01:16:32;2.20;;;2.20;;
17390;SDS011;8813;54.444;18.446;2023-07-20T01:19:01;2.30;;;2.30;;
17390;SDS011;8813;54.444;18.446;2023-07-20T01:21:31;2.30;;;2.30;;
17390;SDS011;8813;54.444;18.446;2023-07-20T01:24:12;2.40;;;2.40;;
17390;SDS011;8813;54.444;18.446;2023-07-20T01:27:09;2.50;;;2.50;;
17390;SDS011;8813;54.444;18.446;2023-07-20T01:29:54;2.53;;;2.53;;
17390;SDS011;8813;54.444;18.446;2023-07-20T01:32:30;2.40;;;2.40;;
17390;SDS011;8813;54.444;18.446;2023-07-20T01:34:56;2.40;;;2.40;;
17390;SDS011;8813;54.444;18.446;2023-07-20T01:37:25;2.30;;;2.30;;
17390;SDS011;8813;54.444;18.446;2023-07-20T01:39:54;2.00;;;2.00;;
17390;SDS011;8813;54.444;18.446;2023-07-20T01:42:22;1.80;;;1.80;;
17390;SDS011;8813;54.444;18.446;2023-07-20T01:44:50;1.80;;;1.80;;
17390;SDS011;8813;54.444;18.446;2023-07-20T01:47:18;1.60;;;1.60;;
17390;SDS011;8813;54.444;18.446;2023-07-20T01:49:47;1.60;;;1.60;;
17390;SDS011;8813;54.444;18.446;2023-07-20T01:52:14;1.60;;;1.60;;
17390;SDS011;8813;54.444;18.446;2023-07-20T01:54:41;1.80;;;1.80;;
17390;SDS011;8813;54.444;18.446;2023-07-20T01:57:08;2.00;;;2.00;;
17390;SDS011;8813;54.444;18.446;2023-07-20T01:59:35;2.05;;;2.05;;
17390;SDS011;8813;54.444;18.446;2023-07-20T02:02:02;2.00;;;2.00;;
17390;SDS011;8813;54.444;18.446;2023-07-20T02:04:29;2.00;;;2.00;;
17390;SDS011;8813;54.444;18.446;2023-07-20T02:06:57;2.00;;;2.00;;
17390;SDS011;8813;54.444;18.446;2023-07-20T02:09:24;2.10;;;2.10;;
17390;SDS011;8813;54.444;18.446;2023-07-20T02:11:51;2.10;;;2.10;;
17390;SDS011;8813;54.444;18.446;2023-07-20T02:14:18;1.90;;;1.90;;
17390;SDS011;8813;54.444;18.446;2023-07-20T02:16:45;2.10;;;2.10;;
17390;SDS011;8813;54.444;18.446;2023-07-20T02:19:14;2.20;;;2.20;;
17390;SDS011;8813;54.444;18.446;2023-07-20T02:21:40;2.00;;;2.00;;
17390;SDS011;8813;54.444;18.446;2023-07-20T02:24:09;2.00;;;2.00;;
17390;SDS011;8813;54.444;18.446;2023-07-20T02:26:36;2.10;;;2.10;;
17390;SDS011;8813;54.444;18.446;2023-07-20T02:32:13;2.08;;;2.08;;
17390;SDS011;8813;54.444;18.446;2023-07-20T02:34:40;2.20;;;2.20;;
17390;SDS011;8813;54.444;18.446;2023-07-20T02:37:07;2.10;;;2.10;;
17390;SDS011;8813;54.444;18.446;2023-07-20T02:39:35;2.10;;;2.10;;
17390;SDS011;8813;54.444;18.446;2023-07-20T02:42:02;2.00;;;2.00;;
17390;SDS011;8813;54.444;18.446;2023-07-20T02:44:31;2.10;;;2.10;;
17390;SDS011;8813;54.444;18.446;2023-07-20T02:46:58;2.00;;;2.00;;
17390;SDS011;8813;54.444;18.446;2023-07-20T02:49:25;2.05;;;2.05;;
17390;SDS011;8813;54.444;18.446;2023-07-20T02:51:51;2.10;;;2.10;;
17390;SDS011;8813;54.444;18.446;2023-07-20T02:54:19;2.17;;;2.17;;
17390;SDS011;8813;54.444;18.446;2023-07-20T02:56:48;2.10;;;2.10;;
17390;SDS011;8813;54.444;18.446;2023-07-20T02:59:15;2.13;;;2.13;;
17390;SDS011;8813;54.444;18.446;2023-07-20T03:01:42;2.35;;;2.35;;
17390;SDS011;8813;54.444;18.446;2023-07-20T03:04:09;2.70;;;2.70;;
17390;SDS011;8813;54.444;18.446;2023-07-20T03:06:36;2.83;;;2.83;;
17390;SDS011;8813;54.444;18.446;2023-07-20T03:09:03;2.90;;;2.90;;
17390;SDS011;8813;54.444;18.446;2023-07-20T03:11:32;2.70;;;2.70;;
17390;SDS011;8813;54.444;18.446;2023-07-20T03:14:00;2.80;;;2.80;;
17390;SDS011;8813;54.444;18.446;2023-07-20T03:16:27;2.50;;;2.50;;
17390;SDS011;8813;54.444;18.446;2023-07-20T03:18:53;2.50;;;2.50;;
17390;SDS011;8813;54.444;18.446;2023-07-20T03:21:20;2.45;;;2.45;;
17390;SDS011;8813;54.444;18.446;2023-07-20T03:23:47;2.55;;;2.55;;
17390;SDS011;8813;54.444;18.446;2023-07-20T03:26:14;2.50;;;2.50;;
17390;SDS011;8813;54.444;18.446;2023-07-20T03:28:41;2.60;;;2.60;;
17390;SDS011;8813;54.444;18.446;2023-07-20T03:31:09;2.53;;;2.53;;
17390;SDS011;8813;54.444;18.446;2023-07-20T03:33:36;2.60;;;2.60;;
17390;SDS011;8813;54.444;18.446;2023-07-20T03:36:03;2.60;;;2.60;;
17390;SDS011;8813;54.444;18.446;2023-07-20T03:38:30;2.70;;;2.70;;
17390;SDS011;8813;54.444;18.446;2023-07-20T03:40:58;2.80;;;2.80;;
17390;SDS011;8813;54.444;18.446;2023-07-20T03:43:26;2.80;;;2.80;;
17390;SDS011;8813;54.444;18.446;2023-07-20T03:45:54;2.70;;;2.70;;
17390;SDS011;8813;54.444;18.446;2023-07-20T03:48:23;2.60;;;2.60;;
17390;SDS011;8813;54.444;18.446;2023-07-20T03:50:51;2.65;;;2.65;;
17390;SDS011;8813;54.444;18.446;2023-07-20T03:53:18;2.40;;;2.40;;
17390;SDS011;8813;54.444;18.446;2023-07-20T03:55:46;2.30;;;2.30;;
17390;SDS011;8813;54.444;18.446;2023-07-20T03:58:14;2.20;;;2.20;;
17390;SDS011;8813;54.444;18.446;2023-07-20T04:00:43;2.20;;;2.20;;
17390;SDS011;8813;54.444;18.446;2023-07-20T04:03:11;2.28;;;2.28;;
17390;SDS011;8813;54.444;18.446;2023-07-20T04:05:39;2.08;;;2.08;;
17390;SDS011;8813;54.444;18.446;2023-07-20T04:08:06;2.00;;;2.00;;
17390;SDS011;8813;54.444;18.446;2023-07-20T04:10:33;1.98;;;1.98;;
17390;SDS011;8813;54.444;18.446;2023-07-20T04:13:00;2.00;;;2.00;;
17390;SDS011;8813;54.444;18.446;2023-07-20T04:15:27;1.90;;;1.90;;
17390;SDS011;8813;54.444;18.446;2023-07-20T04:17:54;2.00;;;2.00;;
17390;SDS011;8813;54.444;18.446;2023-07-20T04:20:21;2.20;;;2.20;;
17390;SDS011;8813;54.444;18.446;2023-07-20T04:22:50;2.20;;;2.20;;
17390;SDS011;8813;54.444;18.446;2023-07-20T04:25:17;2.10;;;2.10;;
17390;SDS011;8813;54.444;18.446;2023-07-20T04:27:44;2.10;;;2.10;;
17390;SDS011;8813;54.444;18.446;2023-07-20T04:30:11;2.00;;;2.00;;
17390;SDS011;8813;54.444;18.446;2023-07-20T04:32:39;2.00;;;2.00;;
17390;SDS011;8813;54.444;18.446;2023-07-20T04:35:16;1.83;;;1.83;;
17390;SDS011;8813;54.444;18.446;2023-07-20T04:37:44;1.80;;;1.80;;
17390;SDS011;8813;54.444;18.446;2023-07-20T04:40:15;2.00;;;2.00;;
17390;SDS011;8813;54.444;18.446;2023-07-20T04:42:42;1.90;;;1.90;;
17390;SDS011;8813;54.444;18.446;2023-07-20T04:45:09;2.10;;;2.10;;
17390;SDS011;8813;54.444;18.446;2023-07-20T04:47:36;1.90;;;1.90;;
17390;SDS011;8813;54.444;18.446;2023-07-20T04:50:03;1.80;;;1.80;;
17390;SDS011;8813;54.444;18.446;2023-07-20T04:52:31;1.90;;;1.90;;
17390;SDS011;8813;54.444;18.446;2023-07-20T04:54:57;1.88;;;1.88;;
17390;SDS011;8813;54.444;18.446;2023-07-20T04:57:26;2.00;;;2.00;;
17390;SDS011;8813;54.444;18.446;2023-07-20T05:02:50;1.80;;;1.80;;
17390;SDS011;8813;54.444;18.446;2023-07-20T05:05:17;2.00;;;2.00;;
17390;SDS011;8813;54.444;18.446;2023-07-20T05:07:44;2.10;;;2.10;;
17390;SDS011;8813;54.444;18.446;2023-07-20T05:10:11;2.00;;;2.00;;
17390;SDS011;8813;54.444;18.446;2023-07-20T05:12:39;2.15;;;2.15;;
17390;SDS011;8813;54.444;18.446;2023-07-20T05:15:06;2.20;;;2.20;;
17390;SDS011;8813;54.444;18.446;2023-07-20T05:17:34;1.98;;;1.98;;
17390;SDS011;8813;54.444;18.446;2023-07-20T05:20:00;1.80;;;1.80;;
17390;SDS011;8813;54.444;18.446;2023-07-20T05:22:29;1.60;;;1.60;;
17390;SDS011;8813;54.444;18.446;2023-07-20T05:24:56;1.70;;;1.70;;
17390;SDS011;8813;54.444;18.446;2023-07-20T05:27:23;1.60;;;1.60;;
17390;SDS011;8813;54.444;18.446;2023-07-20T05:29:51;1.40;;;1.40;;
17390;SDS011;8813;54.444;18.446;2023-07-20T05:32:18;1.60;;;1.60;;
17390;SDS011;8813;54.444;18.446;2023-07-20T05:34:45;1.70;;;1.70;;
17390;SDS011;8813;54.444;18.446;2023-07-20T05:37:12;1.30;;;1.30;;
17390;SDS011;8813;54.444;18.446;2023-07-20T05:39:39;1.60;;;1.60;;
17390;SDS011;8813;54.444;18.446;2023-07-20T05:42:06;1.52;;;1.52;;
17390;SDS011;8813;54.444;18.446;2023-07-20T05:44:33;1.40;;;1.40;;
17390;SDS011;8813;54.444;18.446;2023-07-20T05:47:01;1.50;;;1.50;;
17390;SDS011;8813;54.444;18.446;2023-07-20T05:49:29;1.88;;;1.83;;
17390;SDS011;8813;54.444;18.446;2023-07-20T05:51:56;1.60;;;1.60;;
17390;SDS011;8813;54.444;18.446;2023-07-20T05:54:23;1.98;;;1.85;;
17390;SDS011;8813;54.444;18.446;2023-07-20T05:56:50;1.63;;;1.63;;
17390;SDS011;8813;54.444;18.446;2023-07-20T05:59:17;1.92;;;1.92;;
17390;SDS011;8813;54.444;18.446;2023-07-20T06:01:44;1.65;;;1.65;;
17390;SDS011;8813;54.444;18.446;2023-07-20T06:04:13;1.88;;;1.88;;
17390;SDS011;8813;54.444;18.446;2023-07-20T06:06:40;1.70;;;1.70;;
17390;SDS011;8813;54.444;18.446;2023-07-20T06:09:07;1.50;;;1.50;;
17390;SDS011;8813;54.444;18.446;2023-07-20T06:11:38;1.80;;;1.80;;
17390;SDS011;8813;54.444;18.446;2023-07-20T06:14:05;1.63;;;1.63;;
17390;SDS011;8813;54.444;18.446;2023-07-20T06:16:32;1.90;;;1.90;;
17390;SDS011;8813;54.444;18.446;2023-07-20T06:18:59;1.70;;;1.70;;
17390;SDS011;8813;54.444;18.446;2023-07-20T06:21:28;1.90;;;1.90;;
17390;SDS011;8813;54.444;18.446;2023-07-20T06:23:55;1.60;;;1.60;;
17390;SDS011;8813;54.444;18.446;2023-07-20T06:26:21;1.45;;;1.45;;
17390;SDS011;8813;54.444;18.446;2023-07-20T06:28:48;1.60;;;1.60;;
17390;SDS011;8813;54.444;18.446;2023-07-20T06:31:16;1.60;;;1.60;;
17390;SDS011;8813;54.444;18.446;2023-07-20T06:33:43;1.40;;;1.40;;
17390;SDS011;8813;54.444;18.446;2023-07-20T06:36:10;1.67;;;1.67;;
17390;SDS011;8813;54.444;18.446;2023-07-20T06:38:38;2.25;;;1.50;;
17390;SDS011;8813;54.444;18.446;2023-07-20T06:41:05;1.45;;;1.45;;
17390;SDS011;8813;54.444;18.446;2023-07-20T06:43:32;1.60;;;1.60;;
17390;SDS011;8813;54.444;18.446;2023-07-20T06:46:00;1.00;;;1.00;;
17390;SDS011;8813;54.444;18.446;2023-07-20T06:48:27;1.40;;;1.40;;
17390;SDS011;8813;54.444;18.446;2023-07-20T06:50:54;1.10;;;1.10;;
17390;SDS011;8813;54.444;18.446;2023-07-20T06:53:21;1.40;;;1.40;;
17390;SDS011;8813;54.444;18.446;2023-07-20T06:55:50;1.20;;;1.20;;
17390;SDS011;8813;54.444;18.446;2023-07-20T06:58:17;1.30;;;1.30;;
17390;SDS011;8813;54.444;18.446;2023-07-20T07:00:44;1.20;;;1.20;;
17390;SDS011;8813;54.444;18.446;2023-07-20T07:03:11;1.48;;;1.48;;
17390;SDS011;8813;54.444;18.446;2023-07-20T07:05:38;1.55;;;1.55;;
17390;SDS011;8813;54.444;18.446;2023-07-20T07:08:05;1.40;;;1.40;;
17390;SDS011;8813;54.444;18.446;2023-07-20T07:10:32;1.40;;;1.40;;
17390;SDS011;8813;54.444;18.446;2023-07-20T07:13:01;1.70;;;1.70;;
17390;SDS011;8813;54.444;18.446;2023-07-20T07:15:28;1.30;;;1.30;;
17390;SDS011;8813;54.444;18.446;2023-07-20T07:17:55;1.50;;;1.50;;
17390;SDS011;8813;54.444;18.446;2023-07-20T07:20:24;1.50;;;1.50;;
17390;SDS011;8813;54.444;18.446;2023-07-20T07:22:51;1.23;;;1.23;;
17390;SDS011;8813;54.444;18.446;2023-07-20T07:25:18;1.40;;;1.40;;
17390;SDS011;8813;54.444;18.446;2023-07-20T07:27:45;1.50;;;1.50;;
17390;SDS011;8813;54.444;18.446;2023-07-20T07:30:14;1.50;;;1.50;;
17390;SDS011;8813;54.444;18.446;2023-07-20T07:32:41;1.40;;;1.40;;
17390;SDS011;8813;54.444;18.446;2023-07-20T07:35:09;1.42;;;1.42;;
17390;SDS011;8813;54.444;18.446;2023-07-20T07:37:38;1.60;;;1.60;;
17390;SDS011;8813;54.444;18.446;2023-07-20T07:40:05;1.60;;;1.60;;
17390;SDS011;8813;54.444;18.446;2023-07-20T07:42:33;1.65;;;1.65;;
17390;SDS011;8813;54.444;18.446;2023-07-20T07:45:00;1.23;;;1.23;;
17390;SDS011;8813;54.444;18.446;2023-07-20T07:47:29;1.20;;;1.20;;
17390;SDS011;8813;54.444;18.446;2023-07-20T07:49:55;1.10;;;1.10;;
17390;SDS011;8813;54.444;18.446;2023-07-20T07:52:23;1.02;;;1.02;;
17390;SDS011;8813;54.444;18.446;2023-07-20T07:54:50;1.23;;;1.23;;
17390;SDS011;8813;54.444;18.446;2023-07-20T07:57:16;1.20;;;1.20;;
17390;SDS011;8813;54.444;18.446;2023-07-20T07:59:43;1.00;;;1.00;;
17390;SDS011;8813;54.444;18.446;2023-07-20T08:02:10;1.35;;;1.02;;
17390;SDS011;8813;54.444;18.446;2023-07-20T08:04:39;1.00;;;1.00;;
17390;SDS011;8813;54.444;18.446;2023-07-20T08:07:06;1.20;;;1.20;;
17390;SDS011;8813;54.444;18.446;2023-07-20T08:09:32;1.00;;;1.00;;
17390;SDS011;8813;54.444;18.446;2023-07-20T08:11:59;0.80;;;0.80;;
17390;SDS011;8813;54.444;18.446;2023-07-20T08:14:26;0.90;;;0.90;;
17390;SDS011;8813;54.444;18.446;2023-07-20T08:16:53;0.90;;;0.90;;
17390;SDS011;8813;54.444;18.446;2023-07-20T08:19:20;1.35;;;1.27;;
17390;SDS011;8813;54.444;18.446;2023-07-20T08:21:49;0.80;;;0.80;;
17390;SDS011;8813;54.444;18.446;2023-07-20T08:24:16;0.80;;;0.80;;
17390;SDS011;8813;54.444;18.446;2023-07-20T08:26:43;1.10;;;1.10;;
17390;SDS011;8813;54.444;18.446;2023-07-20T08:29:10;1.20;;;1.20;;
17390;SDS011;8813;54.444;18.446;2023-07-20T08:31:37;1.30;;;1.30;;
17390;SDS011;8813;54.444;18.446;2023-07-20T08:34:04;1.00;;;1.00;;
17390;SDS011;8813;54.444;18.446;2023-07-20T08:36:31;1.00;;;1.00;;
17390;SDS011;8813;54.444;18.446;2023-07-20T08:38:59;1.10;;;1.10;;
17390;SDS011;8813;54.444;18.446;2023-07-20T08:41:28;0.90;;;0.90;;
17390;SDS011;8813;54.444;18.446;2023-07-20T08:43:55;1.00;;;1.00;;
17390;SDS011;8813;54.444;18.446;2023-07-20T08:46:23;0.90;;;0.90;;
17390;SDS011;8813;54.444;18.446;2023-07-20T08:48:51;0.85;;;0.85;;
17390;SDS011;8813;54.444;18.446;2023-07-20T08:51:18;0.90;;;0.90;;
17390;SDS011;8813;54.444;18.446;2023-07-20T08:53:46;0.90;;;0.90;;
17390;SDS011;8813;54.444;18.446;2023-07-20T08:56:15;0.90;;;0.90;;
17390;SDS011;8813;54.444;18.446;2023-07-20T08:58:43;1.00;;;1.00;;
17390;SDS011;8813;54.444;18.446;2023-07-20T09:01:10;0.90;;;0.90;;
17390;SDS011;8813;54.444;18.446;2023-07-20T09:03:38;1.20;;;1.20;;
17390;SDS011;8813;54.444;18.446;2023-07-20T09:06:05;1.10;;;1.10;;
17390;SDS011;8813;54.444;18.446;2023-07-20T09:08:32;1.27;;;1.27;;
17390;SDS011;8813;54.444;18.446;2023-07-20T09:10:59;0.82;;;0.82;;
17390;SDS011;8813;54.444;18.446;2023-07-20T09:13:27;0.70;;;0.70;;
17390;SDS011;8813;54.444;18.446;2023-07-20T09:15:54;0.70;;;0.70;;
17390;SDS011;8813;54.444;18.446;2023-07-20T09:18:24;0.98;;;0.98;;
17390;SDS011;8813;54.444;18.446;2023-07-20T09:20:52;0.90;;;0.90;;
17390;SDS011;8813;54.444;18.446;2023-07-20T09:23:19;0.80;;;0.80;;
17390;SDS011;8813;54.444;18.446;2023-07-20T09:25:47;0.90;;;0.90;;
17390;SDS011;8813;54.444;18.446;2023-07-20T09:28:16;0.70;;;0.70;;
17390;SDS011;8813;54.444;18.446;2023-07-20T09:30:44;0.75;;;0.75;;
17390;SDS011;8813;54.444;18.446;2023-07-20T09:33:18;0.90;;;0.90;;
17390;SDS011;8813;54.444;18.446;2023-07-20T09:35:45;0.80;;;0.80;;
17390;SDS011;8813;54.444;18.446;2023-07-20T09:38:13;0.70;;;0.70;;
17390;SDS011;8813;54.444;18.446;2023-07-20T09:40:41;0.60;;;0.60;;
17390;SDS011;8813;54.444;18.446;2023-07-20T09:43:08;0.80;;;0.80;;
17390;SDS011;8813;54.444;18.446;2023-07-20T09:45:39;1.25;;;1.25;;
17390;SDS011;8813;54.444;18.446;2023-07-20T09:48:08;0.90;;;0.90;;
17390;SDS011;8813;54.444;18.446;2023-07-20T09:50:39;1.00;;;1.00;;
17390;SDS011;8813;54.444;18.446;2023-07-20T09:53:07;0.77;;;0.77;;
17390;SDS011;8813;54.444;18.446;2023-07-20T09:55:34;0.80;;;0.80;;
17390;SDS011;8813;54.444;18.446;2023-07-20T09:58:01;1.30;;;1.20;;
17390;SDS011;8813;54.444;18.446;2023-07-20T10:00:29;1.00;;;1.00;;
17390;SDS011;8813;54.444;18.446;2023-07-20T10:02:56;1.10;;;1.10;;
17390;SDS011;8813;54.444;18.446;2023-07-20T10:05:25;1.10;;;1.10;;
17390;SDS011;8813;54.444;18.446;2023-07-20T10:07:54;1.10;;;1.10;;
17390;SDS011;8813;54.444;18.446;2023-07-20T10:10:22;0.90;;;0.90;;
17390;SDS011;8813;54.444;18.446;2023-07-20T10:12:49;0.90;;;0.90;;
17390;SDS011;8813;54.444;18.446;2023-07-20T10:15:18;0.82;;;0.82;;
17390;SDS011;8813;54.444;18.446;2023-07-20T10:17:49;1.00;;;1.00;;
17390;SDS011;8813;54.444;18.446;2023-07-20T10:20:23;1.20;;;1.20;;
17390;SDS011;8813;54.444;18.446;2023-07-20T10:22:53;1.10;;;1.10;;
17390;SDS011;8813;54.444;18.446;2023-07-20T10:25:20;1.10;;;1.10;;
17390;SDS011;8813;54.444;18.446;2023-07-20T10:27:49;0.90;;;0.90;;
17390;SDS011;8813;54.444;18.446;2023-07-20T10:30:16;0.90;;;0.90;;
17390;SDS011;8813;54.444;18.446;2023-07-20T10:32:44;0.80;;;0.80;;
17390;SDS011;8813;54.444;18.446;2023-07-20T10:35:12;0.80;;;0.80;;
17390;SDS011;8813;54.444;18.446;2023-07-20T10:37:50;0.90;;;0.90;;
17390;SDS011;8813;54.444;18.446;2023-07-20T10:40:29;0.90;;;0.90;;
17390;SDS011;8813;54.444;18.446;2023-07-20T10:43:01;0.60;;;0.60;;
17390;SDS011;8813;54.444;18.446;2023-07-20T10:45:39;0.90;;;0.90;;
17390;SDS011;8813;54.444;18.446;2023-07-20T10:48:14;0.70;;;0.70;;
17390;SDS011;8813;54.444;18.446;2023-07-20T10:50:42;0.90;;;0.90;;
17390;SDS011;8813;54.444;18.446;2023-07-20T10:53:11;0.80;;;0.80;;
17390;SDS011;8813;54.444;18.446;2023-07-20T10:55:39;0.80;;;0.80;;
17390;SDS011;8813;54.444;18.446;2023-07-20T10:58:06;0.70;;;0.70;;
17390;SDS011;8813;54.444;18.446;2023-07-20T11:00:37;0.82;;;0.82;;
17390;SDS011;8813;54.444;18.446;2023-07-20T11:03:04;1.00;;;1.00;;
17390;SDS011;8813;54.444;18.446;2023-07-20T11:05:32;0.90;;;0.90;;
17390;SDS011;8813;54.444;18.446;2023-07-20T11:08:00;1.10;;;1.10;;
17390;SDS011;8813;54.444;18.446;2023-07-20T11:10:31;1.00;;;1.00;;
17390;SDS011;8813;54.444;18.446;2023-07-20T11:13:20;1.30;;;1.30;;
17390;SDS011;8813;54.444;18.446;2023-07-20T11:16:01;0.90;;;0.90;;
17390;SDS011;8813;54.444;18.446;2023-07-20T11:18:29;1.92;;;1.92;;
17390;SDS011;8813;54.444;18.446;2023-07-20T11:20:57;1.20;;;1.20;;
17390;SDS011;8813;54.444;18.446;2023-07-20T11:23:24;1.20;;;1.20;;
17390;SDS011;8813;54.444;18.446;2023-07-20T11:25:53;1.20;;;1.20;;
17390;SDS011;8813;54.444;18.446;2023-07-20T11:28:20;1.10;;;1.10;;
17390;SDS011;8813;54.444;18.446;2023-07-20T11:30:50;1.20;;;1.20;;
17390;SDS011;8813;54.444;18.446;2023-07-20T11:33:18;1.20;;;1.20;;
17390;SDS011;8813;54.444;18.446;2023-07-20T11:35:45;1.10;;;1.10;;
17390;SDS011;8813;54.444;18.446;2023-07-20T11:38:12;1.20;;;1.20;;
17390;SDS011;8813;54.444;18.446;2023-07-20T11:40:42;0.90;;;0.90;;
17390;SDS011;8813;54.444;18.446;2023-07-20T11:43:11;1.10;;;1.10;;
17390;SDS011;8813;54.444;18.446;2023-07-20T11:45:49;1.38;;;1.10;;
17390;SDS011;8813;54.444;18.446;2023-07-20T11:48:16;1.30;;;1.30;;
17390;SDS011;8813;54.444;18.446;2023-07-20T11:50:44;1.08;;;1.08;;
17390;SDS011;8813;54.444;18.446;2023-07-20T11:53:11;1.30;;;1.30;;
17390;SDS011;8813;54.444;18.446;2023-07-20T11:55:38;1.17;;;1.17;;
17390;SDS011;8813;54.444;18.446;2023-07-20T11:58:06;1.30;;;1.30;;
17390;SDS011;8813;54.444;18.446;2023-07-20T12:00:43;1.20;;;1.20;;
17390;SDS011;8813;54.444;18.446;2023-07-20T12:03:11;1.10;;;1.10;;
17390;SDS011;8813;54.444;18.446;2023-07-20T12:05:38;1.10;;;1.10;;
17390;SDS011;8813;54.444;18.446;2023-07-20T12:08:05;1.10;;;1.10;;
17390;SDS011;8813;54.444;18.446;2023-07-20T12:10:32;0.98;;;0.98;;
17390;SDS011;8813;54.444;18.446;2023-07-20T12:13:01;1.20;;;1.20;;
17390;SDS011;8813;54.444;18.446;2023-07-20T12:15:28;1.35;;;1.35;;
17390;SDS011;8813;54.444;18.446;2023-07-20T12:17:58;1.10;;;1.10;;
17390;SDS011;8813;54.444;18.446;2023-07-20T12:20:28;1.48;;;1.48;;
17390;SDS011;8813;54.444;18.446;2023-07-20T12:22:56;1.13;;;1.13;;
17390;SDS011;8813;54.444;18.446;2023-07-20T12:25:32;1.38;;;1.38;;
17390;SDS011;8813;54.444;18.446;2023-07-20T12:28:00;0.90;;;0.90;;
17390;SDS011;8813;54.444;18.446;2023-07-20T12:30:28;1.05;;;1.05;;
17390;SDS011;8813;54.444;18.446;2023-07-20T12:32:55;1.30;;;1.30;;
17390;SDS011;8813;54.444;18.446;2023-07-20T12:35:24;1.20;;;1.20;;
17390;SDS011;8813;54.444;18.446;2023-07-20T12:37:51;1.10;;;1.10;;
17390;SDS011;8813;54.444;18.446;2023-07-20T12:40:18;1.10;;;1.10;;
17390;SDS011;8813;54.444;18.446;2023-07-20T12:42:46;1.20;;;1.20;;
17390;SDS011;8813;54.444;18.446;2023-07-20T12:45:13;1.33;;;1.30;;
17390;SDS011;8813;54.444;18.446;2023-07-20T12:47:40;1.10;;;1.10;;
17390;SDS011;8813;54.444;18.446;2023-07-20T12:50:09;1.02;;;1.02;;
17390;SDS011;8813;54.444;18.446;2023-07-20T12:52:37;1.25;;;1.25;;
17390;SDS011;8813;54.444;18.446;2023-07-20T12:55:05;1.20;;;1.20;;
17390;SDS011;8813;54.444;18.446;2023-07-20T12:57:34;1.00;;;1.00;;
17390;SDS011;8813;54.444;18.446;2023-07-20T13:00:01;1.52;;;1.52;;
17390;SDS011;8813;54.444;18.446;2023-07-20T13:02:29;1.20;;;1.20;;
17390;SDS011;8813;54.444;18.446;2023-07-20T13:04:57;1.10;;;1.10;;
17390;SDS011;8813;54.444;18.446;2023-07-20T13:07:30;1.10;;;1.10;;
17390;SDS011;8813;54.444;18.446;2023-07-20T13:09:58;2.47;;;1.10;;
17390;SDS011;8813;54.444;18.446;2023-07-20T13:12:25;1.10;;;1.10;;
17390;SDS011;8813;54.444;18.446;2023-07-20T13:14:53;0.75;;;0.75;;
17390;SDS011;8813;54.444;18.446;2023-07-20T13:17:20;1.30;;;1.30;;
17390;SDS011;8813;54.444;18.446;2023-07-20T13:19:47;0.80;;;0.80;;
17390;SDS011;8813;54.444;18.446;2023-07-20T13:22:14;0.80;;;0.80;;
17390;SDS011;8813;54.444;18.446;2023-07-20T13:24:44;1.10;;;1.00;;
17390;SDS011;8813;54.444;18.446;2023-07-20T13:27:14;0.90;;;0.90;;
17390;SDS011;8813;54.444;18.446;2023-07-20T13:29:41;0.80;;;0.80;;
17390;SDS011;8813;54.444;18.446;2023-07-20T13:32:08;1.00;;;1.00;;
17390;SDS011;8813;54.444;18.446;2023-07-20T13:34:35;0.80;;;0.80;;
17390;SDS011;8813;54.444;18.446;2023-07-20T13:37:03;0.90;;;0.90;;
17390;SDS011;8813;54.444;18.446;2023-07-20T13:39:30;1.00;;;1.00;;
17390;SDS011;8813;54.444;18.446;2023-07-20T13:41:58;1.10;;;1.10;;
17390;SDS011;8813;54.444;18.446;2023-07-20T13:44:26;1.00;;;1.00;;
17390;SDS011;8813;54.444;18.446;2023-07-20T13:46:53;1.10;;;1.10;;
17390;SDS011;8813;54.444;18.446;2023-07-20T13:49:20;1.30;;;1.30;;
17390;SDS011;8813;54.444;18.446;2023-07-20T13:51:47;1.00;;;1.00;;
17390;SDS011;8813;54.444;18.446;2023-07-20T13:54:14;1.02;;;1.02;;
17390;SDS011;8813;54.444;18.446;2023-07-20T13:56:41;0.95;;;0.95;;
17390;SDS011;8813;54.444;18.446;2023-07-20T13:59:09;1.00;;;1.00;;
17390;SDS011;8813;54.444;18.446;2023-07-20T14:01:36;0.95;;;0.95;;
17390;SDS011;8813;54.444;18.446;2023-07-20T14:04:03;1.05;;;1.05;;
17390;SDS011;8813;54.444;18.446;2023-07-20T14:06:30;1.00;;;1.00;;
17390;SDS011;8813;54.444;18.446;2023-07-20T14:08:58;1.10;;;1.10;;
17390;SDS011;8813;54.444;18.446;2023-07-20T14:11:25;0.95;;;0.95;;
17390;SDS011;8813;54.444;18.446;2023-07-20T14:13:52;1.00;;;1.00;;
17390;SDS011;8813;54.444;18.446;2023-07-20T14:16:21;0.90;;;0.90;;
17390;SDS011;8813;54.444;18.446;2023-07-20T14:18:48;1.00;;;1.00;;
17390;SDS011;8813;54.444;18.446;2023-07-20T14:21:15;1.02;;;1.02;;
17390;SDS011;8813;54.444;18.446;2023-07-20T14:23:46;1.13;;;1.13;;
17390;SDS011;8813;54.444;18.446;2023-07-20T14:26:15;1.00;;;1.00;;
17390;SDS011;8813;54.444;18.446;2023-07-20T14:28:42;2.08;;;1.55;;
17390;SDS011;8813;54.444;18.446;2023-07-20T14:31:09;0.90;;;0.90;;
17390;SDS011;8813;54.444;18.446;2023-07-20T14:33:37;0.90;;;0.90;;
17390;SDS011;8813;54.444;18.446;2023-07-20T14:36:04;0.98;;;0.98;;
17390;SDS011;8813;54.444;18.446;2023-07-20T14:38:33;1.00;;;1.00;;
17390;SDS011;8813;54.444;18.446;2023-07-20T14:41:00;1.00;;;1.00;;
17390;SDS011;8813;54.444;18.446;2023-07-20T14:43:27;1.00;;;1.00;;
17390;SDS011;8813;54.444;18.446;2023-07-20T14:45:54;0.90;;;0.90;;
17390;SDS011;8813;54.444;18.446;2023-07-20T14:48:21;0.90;;;0.90;;
17390;SDS011;8813;54.444;18.446;2023-07-20T14:50:50;0.90;;;0.90;;
17390;SDS011;8813;54.444;18.446;2023-07-20T14:53:17;0.90;;;0.90;;
17390;SDS011;8813;54.444;18.446;2023-07-20T14:55:43;0.90;;;0.90;;
17390;SDS011;8813;54.444;18.446;2023-07-20T14:58:10;0.80;;;0.80;;